Time;durP1;ratioP1;P1;durP2;ratioP2;P2;SDS_P1;SDS_P2;PMS_P1;PMS_P2;Temp;Humidity;BMP_temperature;BMP_pressure;BME280_temperature;BME280_humidity;BME280_pressure;Samples;Min_cycle;Max_cycle;Signal;HPM_P1;HPM_P2
2022/08/11 00:01:49;;;;;;;2.53;2.10;;;;;;;;;;5060640;28;20253;-66
2022/08/11 00:04:17;;;;;;;3.70;1.80;;;;;;;;;;5056792;28;20271;-67
2022/08/11 00:06:45;;;;;;;2.03;1.70;;;;;;;;;;5067460;28;20197;-67
2022/08/11 00:09:17;;;;;;;2.97;1.80;;;;;;;;;;5059561;28;20285;-67
2022/08/11 00:11:51;;;;;;;2.83;2.00;;;;;;;;;;5044144;28;20225;-67
2022/08/11 00:14:20;;;;;;;1.90;1.80;;;;;;;;;;5076898;28;20209;-64
2022/08/11 00:16:59;;;;;;;2.00;1.80;;;;;;;;;;5063373;28;20205;-67
2022/08/11 00:19:28;;;;;;;1.80;1.60;;;;;;;;;;5059443;28;20278;-64
2022/08/11 00:22:22;;;;;;;2.13;1.80;;;;;;;;;;5077705;28;20220;-66
2022/08/11 00:24:50;;;;;;;2.10;1.70;;;;;;;;;;5048814;28;20212;-67
2022/08/11 00:27:35;;;;;;;4.00;1.77;;;;;;;;;;5047503;28;20237;-67
2022/08/11 00:30:04;;;;;;;1.97;1.83;;;;;;;;;;5070656;28;20232;-67
2022/08/11 00:32:32;;;;;;;4.27;1.80;;;;;;;;;;5041894;28;20301;-66
2022/08/11 00:35:01;;;;;;;1.97;1.77;;;;;;;;;;5044529;28;20213;-66
2022/08/11 00:37:49;;;;;;;2.57;1.70;;;;;;;;;;5042080;28;20288;-64
2022/08/11 00:40:27;;;;;;;2.00;1.90;;;;;;;;;;5050297;28;20201;-66
2022/08/11 00:43:16;;;;;;;2.33;1.97;;;;;;;;;;5054348;28;20290;-65
2022/08/11 00:46:07;;;;;;;3.17;1.80;;;;;;;;;;5058410;28;20224;-66
2022/08/11 00:48:43;;;;;;;2.60;1.80;;;;;;;;;;5055065;28;20225;-67
2022/08/11 00:51:40;;;;;;;3.77;1.97;;;;;;;;;;5052596;28;20225;-66
2022/08/11 00:54:47;;;;;;;5.00;1.70;;;;;;;;;;5041809;28;20201;-66
2022/08/11 00:57:17;;;;;;;2.03;1.93;;;;;;;;;;5058992;28;20201;-67
2022/08/11 01:00:10;;;;;;;2.33;1.87;;;;;;;;;;5062590;28;20224;-66
2022/08/11 01:02:47;;;;;;;2.40;2.20;;;;;;;;;;5063698;28;20208;-66
2022/08/11 01:05:34;;;;;;;2.27;2.10;;;;;;;;;;5043160;28;20209;-66
2022/08/11 01:08:04;;;;;;;2.50;1.90;;;;;;;;;;5073047;28;20209;-66
2022/08/11 01:10:44;;;;;;;3.83;2.00;;;;;;;;;;5048951;28;20575;-66
2022/08/11 01:13:30;;;;;;;2.20;2.00;;;;;;;;;;5059897;28;20225;-66
2022/08/11 01:16:03;;;;;;;2.33;2.10;;;;;;;;;;5043160;28;20552;-66
2022/08/11 01:18:50;;;;;;;3.13;2.00;;;;;;;;;;5062173;28;20222;-66
2022/08/11 01:21:17;;;;;;;2.10;1.90;;;;;;;;;;5052821;28;20321;-66
2022/08/11 01:23:44;;;;;;;4.03;2.30;;;;;;;;;;5056004;28;20202;-64
2022/08/11 01:26:18;;;;;;;2.87;2.10;;;;;;;;;;5058284;28;20201;-66
2022/08/11 01:29:04;;;;;;;2.93;2.17;;;;;;;;;;5056312;28;20235;-66
2022/08/11 01:31:31;;;;;;;2.80;1.93;;;;;;;;;;5042355;28;20229;-66
2022/08/11 01:34:08;;;;;;;3.10;2.20;;;;;;;;;;5040256;28;20244;-66
2022/08/11 01:36:51;;;;;;;2.20;2.00;;;;;;;;;;5045139;28;20193;-66
2022/08/11 01:39:32;;;;;;;3.37;2.10;;;;;;;;;;5054818;28;20225;-66
2022/08/11 01:45:11;;;;;;;2.63;1.97;;;;;;;;;;5063572;28;20217;-66
2022/08/11 01:47:54;;;;;;;3.77;2.30;;;;;;;;;;5045785;28;20742;-66
2022/08/11 01:50:37;;;;;;;2.43;2.10;;;;;;;;;;5056867;28;20221;-66
2022/08/11 01:53:23;;;;;;;2.83;2.20;;;;;;;;;;5073766;28;20200;-66
2022/08/11 01:55:57;;;;;;;2.40;2.20;;;;;;;;;;5068616;28;20213;-66
2022/08/11 01:58:31;;;;;;;2.43;2.20;;;;;;;;;;5046495;28;20241;-66
2022/08/11 02:01:16;;;;;;;2.90;2.10;;;;;;;;;;5047316;28;20209;-66
2022/08/11 02:04:04;;;;;;;2.37;2.17;;;;;;;;;;5050729;28;20209;-66
2022/08/11 02:06:53;;;;;;;2.43;2.23;;;;;;;;;;5035401;28;20205;-66
2022/08/11 02:09:24;;;;;;;4.27;2.47;;;;;;;;;;5041572;28;20237;-66
2022/08/11 02:11:52;;;;;;;1.90;1.80;;;;;;;;;;5057338;28;20233;-66
2022/08/11 02:14:26;;;;;;;3.40;2.40;;;;;;;;;;5074866;28;21243;-66
2022/08/11 02:16:59;;;;;;;2.00;1.90;;;;;;;;;;5058147;28;20727;-66
2022/08/11 02:25:26;;;;;;;3.00;2.80;;;;;;;;;;5056133;28;20204;-66
2022/08/11 02:28:27;;;;;;;4.57;2.13;;;;;;;;;;5058421;28;20255;-66
2022/08/11 02:34:38;;;;;;;3.63;2.50;;;;;;;;;;5032389;28;20583;-66
2022/08/11 02:37:24;;;;;;;3.57;2.27;;;;;;;;;;5058351;28;20203;-66
2022/08/11 02:39:57;;;;;;;2.87;2.47;;;;;;;;;;5062388;28;20440;-66
2022/08/11 02:42:43;;;;;;;4.37;2.60;;;;;;;;;;5056571;28;20207;-66
2022/08/11 02:45:11;;;;;;;4.97;2.77;;;;;;;;;;5020179;28;1198796;-65
2022/08/11 02:47:39;;;;;;;2.70;2.50;;;;;;;;;;5063436;28;20203;-65
2022/08/11 02:50:25;;;;;;;2.30;2.10;;;;;;;;;;5063500;28;20582;-66
2022/08/11 02:52:58;;;;;;;6.03;2.70;;;;;;;;;;5047354;28;20678;-66
2022/08/11 02:55:25;;;;;;;3.90;2.67;;;;;;;;;;5060447;28;20197;-66
2022/08/11 02:58:19;;;;;;;2.63;2.43;;;;;;;;;;5071754;28;20912;-65
2022/08/11 03:00:56;;;;;;;3.27;2.60;;;;;;;;;;5054567;28;20627;-66
2022/08/11 03:03:29;;;;;;;5.30;2.53;;;;;;;;;;5054960;28;20208;-66
2022/08/11 03:05:57;;;;;;;2.73;2.50;;;;;;;;;;5043876;28;20220;-65
2022/08/11 03:08:27;;;;;;;5.07;2.30;;;;;;;;;;5065103;28;20662;-64
2022/08/11 03:17:05;;;;;;;3.37;2.13;;;;;;;;;;5021000;28;20663;-65
2022/08/11 03:19:51;;;;;;;3.17;2.33;;;;;;;;;;5039697;28;20224;-64
2022/08/11 03:22:22;;;;;;;2.63;2.43;;;;;;;;;;5057575;28;20242;-66
2022/08/11 03:25:05;;;;;;;2.90;2.70;;;;;;;;;;5059842;28;21480;-65
2022/08/11 03:27:44;;;;;;;5.87;2.97;;;;;;;;;;5067057;28;20214;-64
2022/08/11 03:30:25;;;;;;;2.50;2.30;;;;;;;;;;5060190;28;20266;-66
2022/08/11 03:36:05;;;;;;;4.07;2.73;;;;;;;;;;5062064;28;20641;-65
2022/08/11 03:39:02;;;;;;;2.77;2.37;;;;;;;;;;5053414;28;20217;-65
2022/08/11 03:41:48;;;;;;;3.30;2.63;;;;;;;;;;5019178;28;20385;-64
2022/08/11 03:44:49;;;;;;;2.60;2.40;;;;;;;;;;5047383;28;20211;-66
2022/08/11 03:47:32;;;;;;;3.37;3.07;;;;;;;;;;5060734;28;20210;-65
2022/08/11 03:50:03;;;;;;;4.27;2.70;;;;;;;;;;5067866;28;20643;-65
2022/08/11 03:52:39;;;;;;;5.07;2.60;;;;;;;;;;5068470;28;20233;-65
2022/08/11 03:55:31;;;;;;;4.43;3.10;;;;;;;;;;5062156;28;20220;-65
2022/08/11 03:58:17;;;;;;;3.23;2.93;;;;;;;;;;5035956;28;20208;-66
2022/08/11 04:01:02;;;;;;;3.30;2.87;;;;;;;;;;5067878;28;20204;-65
2022/08/11 04:03:33;;;;;;;3.73;2.57;;;;;;;;;;5056421;28;20233;-65
2022/08/11 04:06:27;;;;;;;3.83;2.77;;;;;;;;;;5057329;28;20254;-65
2022/08/11 04:09:03;;;;;;;4.17;2.80;;;;;;;;;;5043206;28;20226;-66
2022/08/11 04:11:40;;;;;;;2.83;2.63;;;;;;;;;;5065520;28;20225;-65
2022/08/11 04:17:08;;;;;;;4.47;2.70;;;;;;;;;;5070378;28;20622;-65
2022/08/11 04:19:54;;;;;;;3.00;2.73;;;;;;;;;;5062654;28;20223;-65
2022/08/11 04:22:37;;;;;;;4.47;2.80;;;;;;;;;;5066059;28;20588;-65
2022/08/11 04:25:23;;;;;;;3.20;2.80;;;;;;;;;;5061421;28;20303;-65
2022/08/11 04:28:10;;;;;;;3.73;3.00;;;;;;;;;;5063369;28;20257;-66
2022/08/11 04:31:24;;;;;;;3.30;3.00;;;;;;;;;;5050411;28;20229;-66
2022/08/11 04:34:30;;;;;;;4.43;2.63;;;;;;;;;;5067454;28;20232;-65
2022/08/11 04:40:12;;;;;;;4.20;2.80;;;;;;;;;;5073123;28;20229;-65
2022/08/11 04:45:54;;;;;;;4.00;3.03;;;;;;;;;;5060583;28;20269;-65
2022/08/11 05:03:03;;;;;;;4.53;2.80;;;;;;;;;;5065743;28;20212;-65
2022/08/11 05:05:30;;;;;;;4.57;3.20;;;;;;;;;;5059971;28;20206;-65
2022/08/11 05:07:58;;;;;;;3.37;2.77;;;;;;;;;;5061709;28;20691;-65
2022/08/11 05:10:45;;;;;;;4.13;3.20;;;;;;;;;;5051402;28;20719;-66
2022/08/11 05:36:08;;;;;;;3.37;3.07;;;;;;;;;;5066101;28;20202;-66
2022/08/11 05:58:35;;;;;;;5.45;2.80;;;;;;;;;;5070688;28;20278;-66
2022/08/11 06:01:09;;;;;;;5.70;3.00;;;;;;;;;;5062184;28;20201;-66
2022/08/11 06:04:13;;;;;;;4.93;2.35;;;;;;;;;;5055488;28;20279;-66
2022/08/11 06:06:26;;;;;;;3.47;2.90;;;;;;;;;;5059611;28;20237;-66
2022/08/11 06:08:57;;;;;;;2.60;2.38;;;;;;;;;;5067916;28;20290;-66
2022/08/11 06:11:25;;;;;;;4.45;2.60;;;;;;;;;;5043999;28;20214;-66
2022/08/11 06:14:14;;;;;;;3.75;2.65;;;;;;;;;;5066749;28;20254;-66
2022/08/11 06:16:42;;;;;;;3.20;2.65;;;;;;;;;;5054508;28;20205;-65
2022/08/11 06:19:10;;;;;;;3.85;2.67;;;;;;;;;;5067014;28;20221;-65
2022/08/11 06:21:37;;;;;;;5.10;3.00;;;;;;;;;;5069109;28;20205;-65
2022/08/11 06:24:11;;;;;;;3.22;2.95;;;;;;;;;;5042121;28;20714;-65
2022/08/11 06:26:47;;;;;;;4.50;3.00;;;;;;;;;;5051287;28;20217;-65
2022/08/11 06:29:40;;;;;;;3.22;2.92;;;;;;;;;;5063946;28;20225;-65
2022/08/11 06:32:15;;;;;;;3.47;2.90;;;;;;;;;;5059305;28;20296;-65
2022/08/11 06:34:58;;;;;;;3.00;2.70;;;;;;;;;;5065744;28;20202;-65
2022/08/11 06:37:25;;;;;;;3.70;3.08;;;;;;;;;;5060856;28;20209;-65
2022/08/11 06:40:12;;;;;;;3.80;2.50;;;;;;;;;;5044951;28;20221;-65
2022/08/11 06:43:00;;;;;;;3.55;2.67;;;;;;;;;;5051264;28;20202;-65
2022/08/11 06:45:48;;;;;;;3.22;2.95;;;;;;;;;;5052919;28;20210;-66
2022/08/11 06:48:17;;;;;;;3.10;2.78;;;;;;;;;;5074493;28;20224;-66
2022/08/11 06:53:40;;;;;;;3.85;2.60;;;;;;;;;;5065088;28;20205;-66
2022/08/11 07:02:34;;;;;;;4.35;2.92;;;;;;;;;;5066206;28;20798;-65
2022/08/11 07:05:06;;;;;;;3.10;2.80;;;;;;;;;;5056065;28;21039;-65
2022/08/11 07:16:48;;;;;;;3.97;2.78;;;;;;;;;;5065210;28;20205;-66
2022/08/11 07:30:42;;;;;;;3.33;2.50;;;;;;;;;;5063737;28;20220;-66
2022/08/11 07:33:11;;;;;;;2.88;2.50;;;;;;;;;;5051009;28;20237;-66
2022/08/11 07:36:00;;;;;;;4.72;2.70;;;;;;;;;;5058897;28;20228;-66
2022/08/11 07:38:44;;;;;;;3.13;2.60;;;;;;;;;;5062711;28;20237;-66
2022/08/11 07:41:14;;;;;;;5.68;2.70;;;;;;;;;;5055752;28;20651;-66
2022/08/11 07:43:43;;;;;;;2.80;2.60;;;;;;;;;;5059137;28;20202;-66
2022/08/11 07:54:34;;;;;;;3.42;2.72;;;;;;;;;;5067042;28;20198;-66
2022/08/11 08:19:48;;;;;;;3.22;2.20;;;;;;;;;;5066298;28;20715;-66
2022/08/11 08:22:16;;;;;;;2.88;2.25;;;;;;;;;;5052555;28;20273;-65
2022/08/11 08:25:04;;;;;;;4.43;2.10;;;;;;;;;;5077439;28;20202;-66
2022/08/11 08:27:31;;;;;;;2.15;2.05;;;;;;;;;;5065568;28;20206;-66
2022/08/11 08:32:45;;;;;;;2.30;2.10;;;;;;;;;;5068805;28;21614;-66
2022/08/11 08:35:14;;;;;;;3.08;1.85;;;;;;;;;;5067405;28;20196;-66
2022/08/11 08:37:42;;;;;;;3.10;1.90;;;;;;;;;;5051636;28;20398;-66
2022/08/11 08:40:13;;;;;;;4.70;2.05;;;;;;;;;;5069463;28;20696;-65
2022/08/11 08:42:50;;;;;;;2.85;2.08;;;;;;;;;;5078123;28;20206;-66
2022/08/11 08:45:18;;;;;;;2.40;2.10;;;;;;;;;;5068864;28;20677;-66
2022/08/11 08:47:47;;;;;;;2.10;1.90;;;;;;;;;;5051713;28;20259;-66
2022/08/11 08:50:21;;;;;;;4.47;2.00;;;;;;;;;;5040877;28;20206;-66
2022/08/11 08:53:04;;;;;;;2.20;2.00;;;;;;;;;;5062871;28;20307;-65
2022/08/11 08:55:32;;;;;;;4.30;1.80;;;;;;;;;;5081300;28;20239;-66
2022/08/11 08:58:00;;;;;;;3.42;2.20;;;;;;;;;;5054364;28;20201;-65
2022/08/11 09:00:38;;;;;;;3.72;1.90;;;;;;;;;;5067947;28;20568;-66
2022/08/11 09:03:05;;;;;;;4.07;1.60;;;;;;;;;;5066282;28;20213;-66
2022/08/11 09:05:57;;;;;;;1.95;1.73;;;;;;;;;;5054164;28;20255;-66
2022/08/11 09:08:30;;;;;;;3.88;1.95;;;;;;;;;;5062140;28;20273;-66
2022/08/11 09:13:46;;;;;;;3.60;1.60;;;;;;;;;;5059171;28;20229;-66
2022/08/11 09:16:33;;;;;;;11.85;2.70;;;;;;;;;;5068910;28;20201;-66
2022/08/11 09:19:01;;;;;;;30.40;4.20;;;;;;;;;;5063735;28;20225;-65
2022/08/11 09:21:30;;;;;;;10.50;2.88;;;;;;;;;;5057190;28;20276;-66
2022/08/11 09:27:04;;;;;;;5.35;2.20;;;;;;;;;;5062203;28;20551;-66
2022/08/11 09:29:32;;;;;;;2.22;1.60;;;;;;;;;;5047686;28;20276;-66
2022/08/11 09:32:00;;;;;;;3.90;1.90;;;;;;;;;;5073602;28;20262;-66
2022/08/11 09:34:28;;;;;;;2.00;1.70;;;;;;;;;;5066234;28;20267;-66
2022/08/11 09:40:45;;;;;;;2.10;1.80;;;;;;;;;;5074706;28;20326;-66
2022/08/11 09:45:40;;;;;;;1.75;1.65;;;;;;;;;;5066790;28;20291;-65
2022/08/11 09:48:08;;;;;;;2.42;2.22;;;;;;;;;;5052249;28;20728;-66
2022/08/11 09:50:39;;;;;;;3.95;1.83;;;;;;;;;;5053418;28;20323;-66
2022/08/11 09:53:06;;;;;;;1.85;1.70;;;;;;;;;;5074676;28;20598;-66
2022/08/11 09:55:54;;;;;;;3.92;1.95;;;;;;;;;;5069117;28;20830;-66
2022/08/11 09:58:23;;;;;;;2.42;2.05;;;;;;;;;;5045059;28;20229;-66
2022/08/11 10:01:25;;;;;;;5.35;2.13;;;;;;;;;;5068715;28;20551;-66
2022/08/11 10:04:00;;;;;;;2.92;2.00;;;;;;;;;;5059114;28;20196;-66
2022/08/11 10:09:21;;;;;;;5.47;2.20;;;;;;;;;;5066181;28;20541;-65
2022/08/11 10:11:52;;;;;;;2.10;1.88;;;;;;;;;;5053308;28;20202;-66
2022/08/11 10:17:12;;;;;;;1.63;1.52;;;;;;;;;;5068811;28;20604;-66
2022/08/11 10:19:41;;;;;;;2.97;1.77;;;;;;;;;;5068167;28;20259;-66
2022/08/11 10:27:53;;;;;;;4.10;2.30;;;;;;;;;;5071378;28;20233;-66
2022/08/11 10:33:59;;;;;;;2.63;1.77;;;;;;;;;;5030321;28;20249;-66
2022/08/11 10:36:27;;;;;;;3.70;2.00;;;;;;;;;;5043830;28;20214;-66
2022/08/11 10:38:56;;;;;;;3.05;1.83;;;;;;;;;;5073345;28;20229;-66
2022/08/11 10:44:37;;;;;;;4.70;2.10;;;;;;;;;;5071070;28;20268;-66
2022/08/11 11:00:59;;;;;;;2.88;2.10;;;;;;;;;;5072342;28;20201;-66
2022/08/11 11:03:28;;;;;;;4.63;2.00;;;;;;;;;;5052050;28;20209;-66
2022/08/11 11:06:01;;;;;;;3.10;2.10;;;;;;;;;;5055607;28;20739;-66
2022/08/11 11:08:51;;;;;;;2.92;2.17;;;;;;;;;;5066921;28;20309;-66
2022/08/11 11:11:20;;;;;;;2.83;2.05;;;;;;;;;;5062942;28;20243;-67
2022/08/11 11:19:19;;;;;;;3.70;2.10;;;;;;;;;;5058273;28;20596;-66
2022/08/11 11:21:48;;;;;;;6.68;2.20;;;;;;;;;;5069873;28;20205;-66
2022/08/11 11:24:32;;;;;;;2.80;1.80;;;;;;;;;;5070238;28;20201;-66
2022/08/11 11:27:02;;;;;;;3.75;1.98;;;;;;;;;;5064727;28;20205;-66
2022/08/11 11:29:49;;;;;;;2.13;2.03;;;;;;;;;;5046943;28;20226;-66
2022/08/11 11:32:18;;;;;;;2.63;1.70;;;;;;;;;;5068080;28;20257;-66
2022/08/11 11:34:45;;;;;;;2.45;2.13;;;;;;;;;;5066774;28;20206;-67
2022/08/11 11:37:20;;;;;;;2.33;1.90;;;;;;;;;;5048952;28;20579;-66
2022/08/11 11:39:48;;;;;;;2.15;1.95;;;;;;;;;;5048288;28;20692;-66
2022/08/11 11:42:16;;;;;;;2.70;2.03;;;;;;;;;;5065958;28;20275;-66
2022/08/11 11:44:45;;;;;;;1.73;1.63;;;;;;;;;;5063578;28;20419;-66
2022/08/11 11:47:13;;;;;;;3.03;1.85;;;;;;;;;;5053077;28;20715;-66
2022/08/11 11:49:42;;;;;;;1.92;1.80;;;;;;;;;;5049008;28;20229;-66
2022/08/11 11:52:16;;;;;;;2.28;1.83;;;;;;;;;;5068163;28;20554;-66
2022/08/11 11:54:45;;;;;;;13.63;2.83;;;;;;;;;;5043895;28;20209;-66
2022/08/11 12:02:46;;;;;;;3.17;1.90;;;;;;;;;;5066891;28;20209;-66
2022/08/11 12:05:14;;;;;;;1.85;1.75;;;;;;;;;;5041973;28;20209;-66
2022/08/11 12:13:39;;;;;;;3.30;1.80;;;;;;;;;;5073304;28;21887;-66
2022/08/11 12:13:57;;;;;;;2.03;1.83;;;;;;;;;;5064468;28;20899;-66
2022/08/11 12:16:24;;;;;;;3.00;1.70;;;;;;;;;;5064243;28;20197;-66
2022/08/11 12:19:03;;;;;;;1.80;1.70;;;;;;;;;;5068446;28;20225;-66
2022/08/11 12:21:30;;;;;;;1.88;1.77;;;;;;;;;;5048684;28;20519;-67
2022/08/11 12:29:45;;;;;;;2.25;1.70;;;;;;;;;;5058375;28;20316;-66
2022/08/11 12:32:17;;;;;;;1.98;1.88;;;;;;;;;;5061744;28;20205;-66
2022/08/11 12:34:44;;;;;;;2.92;1.83;;;;;;;;;;5063907;28;20212;-66
2022/08/11 12:37:13;;;;;;;2.20;2.00;;;;;;;;;;5063500;28;20619;-67
2022/08/11 12:45:50;;;;;;;3.42;1.92;;;;;;;;;;5060257;28;20706;-66
2022/08/11 12:54:37;;;;;;;4.18;2.00;;;;;;;;;;5065699;28;20776;-66
2022/08/11 13:05:41;;;;;;;2.78;2.13;;;;;;;;;;5070499;28;20217;-66
2022/08/11 13:08:13;;;;;;;7.88;2.08;;;;;;;;;;5044859;28;20300;-66
2022/08/11 13:13:28;;;;;;;4.18;1.98;;;;;;;;;;5071809;28;20229;-66
2022/08/11 13:16:16;;;;;;;2.30;2.03;;;;;;;;;;5057438;28;20205;-66
2022/08/11 13:18:44;;;;;;;2.72;2.00;;;;;;;;;;5056797;28;20224;-65
2022/08/11 13:21:12;;;;;;;4.30;2.05;;;;;;;;;;5061596;28;20697;-66
2022/08/11 13:23:48;;;;;;;4.35;2.20;;;;;;;;;;5050784;28;20236;-66
2022/08/11 13:26:30;;;;;;;1.98;1.88;;;;;;;;;;5054699;28;20213;-66
2022/08/11 13:29:23;;;;;;;2.33;2.13;;;;;;;;;;5071000;28;20233;-66
2022/08/11 13:31:54;;;;;;;2.47;2.00;;;;;;;;;;5063590;28;20213;-66
2022/08/11 13:34:23;;;;;;;2.22;1.80;;;;;;;;;;5061681;28;20771;-67
2022/08/11 13:36:51;;;;;;;4.50;2.15;;;;;;;;;;5068282;28;20205;-66
2022/08/11 13:39:19;;;;;;;3.53;2.03;;;;;;;;;;5068269;28;20239;-66
2022/08/11 13:41:50;;;;;;;5.45;2.05;;;;;;;;;;5060505;28;20202;-66
2022/08/11 13:44:18;;;;;;;2.67;2.05;;;;;;;;;;5075205;28;20208;-66
2022/08/11 13:46:52;;;;;;;4.60;2.00;;;;;;;;;;5058834;28;20214;-67
2022/08/11 13:49:20;;;;;;;2.50;1.67;;;;;;;;;;5061496;28;20245;-66
2022/08/11 13:51:48;;;;;;;2.20;2.00;;;;;;;;;;5052090;28;20210;-66
2022/08/11 13:54:20;;;;;;;1.75;1.65;;;;;;;;;;5060713;28;20221;-66
2022/08/11 13:56:51;;;;;;;2.28;1.88;;;;;;;;;;5051526;28;20197;-66
2022/08/11 13:59:21;;;;;;;2.30;2.10;;;;;;;;;;5066473;28;20225;-66
2022/08/11 14:01:52;;;;;;;2.03;1.85;;;;;;;;;;5067459;28;20569;-66
2022/08/11 14:04:42;;;;;;;2.40;2.20;;;;;;;;;;5051153;28;20209;-66
2022/08/11 14:07:11;;;;;;;6.15;2.58;;;;;;;;;;5062490;28;20656;-66
2022/08/11 14:09:40;;;;;;;5.68;2.40;;;;;;;;;;5055837;28;20278;-66
2022/08/11 14:14:59;;;;;;;5.88;2.33;;;;;;;;;;5072458;28;20309;-66
2022/08/11 14:17:34;;;;;;;2.58;2.00;;;;;;;;;;5076816;28;20206;-66
2022/08/11 14:20:17;;;;;;;3.10;2.03;;;;;;;;;;5055854;28;20685;-66
2022/08/11 14:23:04;;;;;;;5.03;2.10;;;;;;;;;;5059216;28;20630;-66
2022/08/11 14:25:32;;;;;;;2.80;2.00;;;;;;;;;;5053972;28;20210;-66
2022/08/11 14:28:19;;;;;;;2.97;2.00;;;;;;;;;;5057096;28;20252;-66
2022/08/11 14:31:04;;;;;;;5.60;1.90;;;;;;;;;;5055617;28;20296;-66
2022/08/11 14:33:32;;;;;;;2.28;1.70;;;;;;;;;;5060797;28;20216;-66
2022/08/11 14:36:21;;;;;;;2.40;1.90;;;;;;;;;;5055585;28;20367;-66
2022/08/11 14:38:49;;;;;;;3.35;1.80;;;;;;;;;;5047430;28;20226;-66
2022/08/11 14:47:13;;;;;;;3.20;2.00;;;;;;;;;;5064260;28;20242;-66
2022/08/11 14:49:59;;;;;;;3.63;2.10;;;;;;;;;;5070806;28;20228;-66
2022/08/11 14:52:38;;;;;;;3.60;1.80;;;;;;;;;;5064323;28;20209;-66
2022/08/11 14:57:54;;;;;;;3.17;1.92;;;;;;;;;;5068115;28;20284;-66
2022/08/11 15:00:23;;;;;;;3.30;1.70;;;;;;;;;;5051142;28;20293;-66
2022/08/11 15:03:09;;;;;;;4.32;1.52;;;;;;;;;;5060623;28;20216;-66
2022/08/11 15:05:40;;;;;;;2.08;1.77;;;;;;;;;;5062110;28;20217;-66
2022/08/11 15:08:08;;;;;;;4.32;1.90;;;;;;;;;;5057011;28;20213;-66
2022/08/11 15:10:36;;;;;;;4.10;1.70;;;;;;;;;;5049944;28;20213;-66
2022/08/11 15:13:04;;;;;;;2.95;1.70;;;;;;;;;;5058497;28;20206;-66
2022/08/11 15:18:22;;;;;;;3.15;1.77;;;;;;;;;;5059900;28;20274;-66
2022/08/11 15:37:45;;;;;;;2.45;1.80;;;;;;;;;;5057787;28;20248;-66
2022/08/11 15:46:00;;;;;;;1.92;1.60;;;;;;;;;;5052145;28;20259;-66
2022/08/11 15:48:51;;;;;;;4.90;1.88;;;;;;;;;;5050426;28;20291;-66
2022/08/11 15:51:32;;;;;;;3.90;2.08;;;;;;;;;;5038346;28;20205;-66
2022/08/11 15:54:03;;;;;;;1.70;1.60;;;;;;;;;;5065401;28;20227;-66
2022/08/11 15:56:37;;;;;;;3.75;2.00;;;;;;;;;;5068350;28;20215;-66
2022/08/11 16:05:00;;;;;;;2.00;1.63;;;;;;;;;;5056584;28;20651;-66
2022/08/11 16:07:30;;;;;;;3.25;1.83;;;;;;;;;;5068027;28;20213;-66
2022/08/11 16:10:08;;;;;;;2.50;1.70;;;;;;;;;;5046998;28;20582;-66
2022/08/11 16:12:38;;;;;;;1.95;1.52;;;;;;;;;;5057229;28;20224;-66
2022/08/11 16:17:58;;;;;;;2.42;1.80;;;;;;;;;;5055525;28;21944;-66
2022/08/11 16:20:27;;;;;;;2.33;1.70;;;;;;;;;;5052983;28;20753;-67
2022/08/11 16:22:58;;;;;;;2.53;2.00;;;;;;;;;;5046668;28;20699;-66
2022/08/11 16:25:29;;;;;;;3.78;1.92;;;;;;;;;;5064633;28;20270;-67
2022/08/11 16:28:19;;;;;;;1.70;1.60;;;;;;;;;;5053727;28;20235;-64
2022/08/11 16:30:48;;;;;;;2.28;1.67;;;;;;;;;;5049720;28;20747;-64
2022/08/11 16:33:16;;;;;;;2.35;1.60;;;;;;;;;;5080450;28;20217;-65
2022/08/11 16:38:52;;;;;;;3.15;1.60;;;;;;;;;;5063349;28;20769;-65
2022/08/11 16:47:05;;;;;;;2.90;1.80;;;;;;;;;;5062328;28;20209;-65
2022/08/11 16:49:36;;;;;;;1.83;1.73;;;;;;;;;;5057716;28;20220;-65
2022/08/11 16:52:04;;;;;;;1.83;1.67;;;;;;;;;;5066030;28;20225;-66
2022/08/11 16:54:33;;;;;;;4.85;1.92;;;;;;;;;;5059057;28;20229;-65
2022/08/11 16:59:13;;;;;;;3.90;1.90;;;;;;;;;;5054885;28;20198;-65
2022/08/11 16:59:51;;;;;;;3.00;1.80;;;;;;;;;;5058729;28;20229;-64
2022/08/11 17:14:14;;;;;;;2.60;1.95;;;;;;;;;;5063574;28;20214;-65
2022/08/11 17:16:42;;;;;;;1.98;1.80;;;;;;;;;;5054313;28;20197;-67
2022/08/11 17:19:12;;;;;;;2.95;1.80;;;;;;;;;;5046189;28;20226;-67
2022/08/11 17:24:34;;;;;;;3.08;1.63;;;;;;;;;;5064091;28;20197;-65
2022/08/11 17:27:06;;;;;;;2.70;1.70;;;;;;;;;;5052559;28;20254;-64
2022/08/11 17:29:38;;;;;;;1.90;1.50;;;;;;;;;;5066597;28;20229;-64
2022/08/11 17:35:29;;;;;;;2.50;1.85;;;;;;;;;;5064399;28;20315;-66
2022/08/11 17:37:57;;;;;;;1.52;1.42;;;;;;;;;;5046652;28;20296;-67
2022/08/11 17:40:24;;;;;;;2.75;1.85;;;;;;;;;;5062817;28;20205;-66
2022/08/11 17:48:31;;;;;;;2.13;1.60;;;;;;;;;;5059316;28;20233;-67
2022/08/11 17:51:04;;;;;;;2.00;1.60;;;;;;;;;;5064624;28;20210;-65
2022/08/11 18:05:04;;;;;;;1.70;1.60;;;;;;;;;;5061421;28;20217;-66
